ESNO

Details ICAO ESNO (OER)
Name Ornskoldsvik
Region Sweden
Timezone Europe/Stockholm (UTC+1.0)
Plans Departing 13
Arriving 12
Stats Elevation 354 ft / 108 m (AMSL)
Location 63.409247° 18.988249°
Runways 1
Magnetic Variation 7.285° E
Sunrise 2017-12-16 08:23:43 UTC / 2017-12-16 09:23:43 Local
Sunset 2017-12-16 12:58:21 UTC / 2017-12-16 13:58:21 Local
Advertisement - Login to hide

Runways

ID Width Length Bearing (true) Bearing (mag) Surface Threshold Offset Overrun Length
12 148 ft / 45 m 6,586 ft / 2,008 m 121.62° 114.34° Asphalt 0 ft / 0 m 197 ft / 60 m
30 148 ft / 45 m 6,586 ft / 2,008 m 301.65° 294.37° Asphalt 0 ft / 0 m 115 ft / 35 m

Approach Navaids

Runway Type Ident Frequency Range Bearing (true) Bearing (mag) Slope Elevation
12 Localiser NO 110.10 MHz 18 nm / 33 km 121.64° 114.35° - 354 ft / 108 m (AMSL)
12 Glidescope NO 110.10 MHz 10 nm / 19 km 121.64° 114.35° 3.25° 354 ft / 108 m (AMSL)
12 DME NO 110.10 MHz 18 nm / 33 km - - - 349 ft / 106 m (AMSL)

Map

Weather


0- 5 10 15 20 25 30 35+ Temperature / ° C

Clouds and Precipitation
Forecast for 2017-12-16 00:00 UTC. Updated 44 minutes ago

Ground ~20,000 ft ~40,000 ft Winds

METAR

ESNO 152350Z AUTO 36004KT 9999 OVC025/// M02/M02 Q0995

TAF

Not found

Frequencies

Tower 122.25 MHz AFIS
Warning: Do not use this data for real-world aviation or navigation. No guarantee of current accuracy is given.